createdAt,value
2023-05-14T00:00:44.012Z,38.63
2023-05-14T00:03:11.950Z,38.34
2023-05-14T00:05:39.873Z,38.62
2023-05-14T00:08:07.525Z,38.89
2023-05-14T00:10:36.521Z,39.37
2023-05-14T00:13:04.163Z,38.91
2023-05-14T00:15:34.116Z,38.81
2023-05-14T00:18:02.059Z,38.79
2023-05-14T00:20:29.809Z,38.99
2023-05-14T00:22:57.484Z,39.49
2023-05-14T00:25:25.166Z,39.88
2023-05-14T00:27:54.170Z,39.71
2023-05-14T00:30:21.914Z,39.56
2023-05-14T00:32:49.921Z,39.88
2023-05-14T00:35:17.654Z,40.16
2023-05-14T00:37:45.310Z,39.98
2023-05-14T00:40:13.312Z,39.90
2023-05-14T00:42:40.950Z,39.88
2023-05-14T00:45:10.649Z,39.61
2023-05-14T00:47:40.196Z,40.10
2023-05-14T00:50:08.307Z,39.94
2023-05-14T00:52:36.022Z,39.90
2023-05-14T00:55:04.452Z,39.73
2023-05-14T00:57:32.240Z,39.82
2023-05-14T01:00:00.190Z,39.63
2023-05-14T01:02:29.321Z,39.80
2023-05-14T01:04:56.906Z,40.01
2023-05-14T01:07:26.159Z,40.00
2023-05-14T01:09:54.862Z,39.48
2023-05-14T01:12:24.521Z,39.54
2023-05-14T01:14:55.754Z,39.77
2023-05-14T01:17:23.868Z,39.60
2023-05-14T01:19:52.872Z,39.72
2023-05-14T01:22:21.901Z,39.74
2023-05-14T01:24:49.492Z,40.06
2023-05-14T01:27:18.631Z,39.82
2023-05-14T01:29:46.789Z,39.76
2023-05-14T01:32:14.858Z,40.07
2023-05-14T01:34:42.468Z,39.48
2023-05-14T01:37:10.392Z,39.56
2023-05-14T01:39:39.419Z,39.66
2023-05-14T01:42:07.389Z,39.68
2023-05-14T01:44:34.948Z,39.90
2023-05-14T01:47:02.572Z,39.59
2023-05-14T01:49:30.505Z,39.23
2023-05-14T01:51:58.077Z,39.51
2023-05-14T01:54:25.721Z,39.05
2023-05-14T01:56:54.711Z,39.25
2023-05-14T01:59:22.359Z,39.67
2023-05-14T02:01:50.004Z,39.37
2023-05-14T02:04:18.048Z,39.17
2023-05-14T02:06:45.743Z,39.05
2023-05-14T02:09:13.309Z,38.91
2023-05-14T02:11:40.937Z,39.08
2023-05-14T02:14:09.910Z,38.75
2023-05-14T02:16:37.503Z,38.68
2023-05-14T02:19:05.148Z,38.56
2023-05-14T02:21:32.960Z,38.13
2023-05-14T02:24:00.616Z,38.02
2023-05-14T02:26:28.258Z,37.96
2023-05-14T02:28:56.645Z,37.51
2023-05-14T02:31:26.394Z,37.65
2023-05-14T02:33:54.035Z,37.76
2023-05-14T02:36:21.746Z,37.44
2023-05-14T02:38:49.390Z,37.30
2023-05-14T02:41:17.022Z,37.54
2023-05-14T02:43:44.672Z,37.17
2023-05-14T02:46:12.354Z,37.62
2023-05-14T02:48:41.374Z,36.99
2023-05-14T02:51:09.385Z,37.08
2023-05-14T02:53:37.014Z,36.80
2023-05-14T02:56:04.886Z,36.84
2023-05-14T02:58:32.508Z,36.95
2023-05-14T03:01:00.310Z,36.63
2023-05-14T03:03:29.954Z,36.83
2023-05-14T03:05:59.552Z,36.71
2023-05-14T03:08:27.229Z,36.30
2023-05-14T03:10:55.001Z,36.20
2023-05-14T03:13:22.680Z,36.12
2023-05-14T03:15:54.636Z,35.99
2023-05-14T03:18:22.344Z,35.88
2023-05-14T03:20:49.987Z,36.28
2023-05-14T03:23:18.976Z,36.33
2023-05-14T03:25:46.640Z,36.32
2023-05-14T03:28:14.291Z,36.15
2023-05-14T03:30:41.968Z,36.28
2023-05-14T03:33:10.982Z,36.23
2023-05-14T03:35:38.606Z,35.83
2023-05-14T03:38:06.173Z,36.16
2023-05-14T03:40:36.865Z,35.96
2023-05-14T03:43:04.504Z,35.97
2023-05-14T03:45:32.353Z,35.88
2023-05-14T03:48:00.576Z,36.16
2023-05-14T03:50:28.412Z,36.26
2023-05-14T03:52:56.233Z,36.28
2023-05-14T03:55:24.025Z,35.85
2023-05-14T03:57:53.301Z,36.13
2023-05-14T04:00:21.718Z,35.79
2023-05-14T04:02:49.709Z,36.58
2023-05-14T04:05:17.652Z,36.24
2023-05-14T04:07:46.803Z,36.35
2023-05-14T04:10:14.499Z,36.39
2023-05-14T04:12:42.084Z,36.58
2023-05-14T04:15:12.096Z,37.47
2023-05-14T04:17:39.803Z,37.54
2023-05-14T04:20:08.526Z,37.34
2023-05-14T04:22:36.216Z,38.21
2023-05-14T04:25:03.796Z,38.31
2023-05-14T04:27:31.448Z,38.14
2023-05-14T04:29:59.219Z,37.92
2023-05-14T04:32:28.362Z,37.78
2023-05-14T04:34:55.961Z,37.65
2023-05-14T04:37:23.642Z,37.48
2023-05-14T04:39:51.208Z,37.07
2023-05-14T04:42:19.010Z,37.03
2023-05-14T04:44:46.643Z,36.39
2023-05-14T04:47:14.263Z,35.90
2023-05-14T04:49:43.385Z,35.77
2023-05-14T04:52:11.104Z,35.50
2023-05-14T04:54:39.198Z,35.58
2023-05-14T04:57:06.976Z,35.23
2023-05-14T04:59:34.633Z,35.09
2023-05-14T05:02:02.418Z,34.90
2023-05-14T05:04:30.242Z,34.46
2023-05-14T05:06:59.229Z,34.51
2023-05-14T05:09:26.865Z,34.63
2023-05-14T05:11:54.589Z,34.09
2023-05-14T05:14:22.312Z,34.17
2023-05-14T05:16:49.954Z,34.18
2023-05-14T05:19:17.725Z,34.45
2023-05-14T05:21:45.442Z,35.24
2023-05-14T05:24:14.512Z,35.38
2023-05-14T05:26:42.167Z,36.14
2023-05-14T05:29:09.797Z,36.16
2023-05-14T05:31:37.647Z,36.25
2023-05-14T05:34:05.312Z,35.81
2023-05-14T05:36:33.320Z,35.18
2023-05-14T05:39:00.998Z,34.86
2023-05-14T05:41:30.160Z,34.47
2023-05-14T05:43:57.770Z,33.79
2023-05-14T05:46:25.494Z,33.95
2023-05-14T05:48:53.329Z,33.42
2023-05-14T05:51:21.046Z,33.23
2023-05-14T05:53:48.634Z,32.69
2023-05-14T05:56:16.253Z,32.37
2023-05-14T05:58:45.218Z,31.80
2023-05-14T06:01:12.909Z,31.48
2023-05-14T06:03:40.530Z,31.17
2023-05-14T06:06:08.376Z,30.70
2023-05-14T06:08:36.074Z,30.11
2023-05-14T06:11:03.761Z,29.67
2023-05-14T06:13:31.392Z,29.74
2023-05-14T06:16:00.524Z,28.93
2023-05-14T06:18:28.257Z,28.77
2023-05-14T06:20:56.876Z,28.84
2023-05-14T06:23:24.499Z,28.99
2023-05-14T06:25:52.193Z,28.88
2023-05-14T06:28:19.810Z,28.82
2023-05-14T06:30:47.503Z,28.83
2023-05-14T06:33:17.397Z,28.56
2023-05-14T06:35:46.568Z,28.00
2023-05-14T06:38:14.245Z,27.33
2023-05-14T06:40:41.859Z,27.43
2023-05-14T06:43:09.524Z,26.83
2023-05-14T06:45:37.213Z,27.91
2023-05-14T06:48:05.408Z,26.65
2023-05-14T06:50:34.432Z,26.64
2023-05-14T06:53:02.052Z,26.37
2023-05-14T06:55:29.705Z,26.36
2023-05-14T06:57:57.485Z,25.27
2023-05-14T07:00:25.562Z,25.37
2023-05-14T07:02:53.714Z,25.23
2023-05-14T07:05:21.457Z,25.22
2023-05-14T07:07:50.419Z,24.71
2023-05-14T07:10:18.043Z,25.12
2023-05-14T07:12:45.820Z,24.75
2023-05-14T07:15:13.412Z,24.42
2023-05-14T07:17:41.078Z,24.08
2023-05-14T07:20:09.257Z,24.07
2023-05-14T07:22:36.890Z,23.48
2023-05-14T07:25:06.262Z,24.04
2023-05-14T07:27:33.899Z,23.63
2023-05-14T07:30:01.555Z,23.29
2023-05-14T07:32:29.245Z,23.25
2023-05-14T07:34:56.996Z,22.90
2023-05-14T07:37:25.977Z,23.17
2023-05-14T07:39:53.686Z,23.50
2023-05-14T07:42:35.148Z,23.07
2023-05-14T07:45:04.091Z,22.93
2023-05-14T07:47:31.965Z,22.93
2023-05-14T07:50:00.004Z,22.69
2023-05-14T07:52:27.645Z,22.73
2023-05-14T07:54:55.389Z,22.54
2023-05-14T07:57:24.420Z,22.45
2023-05-14T07:59:52.081Z,21.82
2023-05-14T08:02:19.818Z,21.92
2023-05-14T08:04:47.486Z,21.54
2023-05-14T08:07:15.176Z,21.64
2023-05-14T08:09:42.857Z,21.96
2023-05-14T08:12:10.560Z,21.37
2023-05-14T08:14:39.542Z,20.36
2023-05-14T08:17:07.208Z,21.35
2023-05-14T08:19:34.920Z,21.30
2023-05-14T08:22:02.497Z,21.50
2023-05-14T08:24:30.180Z,20.14
2023-05-14T08:26:57.826Z,20.97
2023-05-14T08:29:25.895Z,21.05
2023-05-14T08:31:54.938Z,20.51
2023-05-14T08:34:22.588Z,20.48
2023-05-14T08:36:50.923Z,20.74
2023-05-14T08:39:18.604Z,20.75
2023-05-14T08:41:46.394Z,20.83
2023-05-14T08:44:14.442Z,20.57
2023-05-14T08:46:42.183Z,20.67
2023-05-14T08:49:15.948Z,20.86
2023-05-14T08:51:44.000Z,20.00
2023-05-14T08:54:14.525Z,20.32
2023-05-14T08:56:42.178Z,19.49
2023-05-14T08:59:09.823Z,20.33
2023-05-14T09:01:38.129Z,20.18
2023-05-14T09:04:08.341Z,20.48
2023-05-14T09:06:38.475Z,19.70
2023-05-14T09:09:06.447Z,19.52
2023-05-14T09:11:34.048Z,19.22
2023-05-14T09:14:01.663Z,19.36
2023-05-14T09:16:29.335Z,19.92
2023-05-14T09:18:56.997Z,19.12
2023-05-14T09:21:24.690Z,19.94
2023-05-14T09:23:56.477Z,19.68
2023-05-14T09:26:24.733Z,19.85
2023-05-14T09:28:54.313Z,19.77
2023-05-14T09:31:21.971Z,19.53
2023-05-14T09:33:51.329Z,19.24
2023-05-14T09:36:19.095Z,18.94
2023-05-14T09:38:46.773Z,18.22
2023-05-14T09:41:16.266Z,18.39
2023-05-14T09:43:43.925Z,18.46
2023-05-14T09:46:11.582Z,18.63
2023-05-14T09:48:39.275Z,18.55
2023-05-14T09:51:06.970Z,18.96
2023-05-14T09:53:35.570Z,18.90
2023-05-14T09:56:03.233Z,19.19
2023-05-14T09:58:32.217Z,19.00
2023-05-14T10:00:59.863Z,18.90
2023-05-14T10:03:27.994Z,18.34
2023-05-14T10:05:55.592Z,18.60
2023-05-14T10:08:25.356Z,18.42
2023-05-14T10:10:53.029Z,18.83
2023-05-14T10:13:21.591Z,18.79
2023-05-14T10:15:52.492Z,18.93
2023-05-14T10:18:20.996Z,18.83
2023-05-14T10:20:49.351Z,19.04
2023-05-14T10:23:17.111Z,18.84
2023-05-14T10:25:44.755Z,19.42
2023-05-14T10:28:12.665Z,19.24
2023-05-14T10:30:42.829Z,19.45
2023-05-14T10:33:12.666Z,19.55
2023-05-14T10:35:53.398Z,19.58
2023-05-14T10:38:23.231Z,19.60
2023-05-14T10:40:53.547Z,19.86
2023-05-14T10:43:21.794Z,19.71
2023-05-14T10:45:49.390Z,19.99
2023-05-14T10:48:19.532Z,19.87
2023-05-14T10:50:49.073Z,19.88
2023-05-14T10:53:16.738Z,19.71
2023-05-14T10:55:44.433Z,19.86
2023-05-14T10:58:12.060Z,20.04
2023-05-14T11:00:39.952Z,19.76
2023-05-14T11:03:07.863Z,19.68
2023-05-14T11:05:37.539Z,19.82
2023-05-14T11:08:05.681Z,20.19
2023-05-14T11:10:33.285Z,20.00
2023-05-14T11:13:00.886Z,19.93
2023-05-14T11:15:29.050Z,20.10
2023-05-14T11:17:56.850Z,20.16
2023-05-14T11:20:24.693Z,20.51
2023-05-14T11:22:54.369Z,20.28
2023-05-14T11:25:22.861Z,20.42
2023-05-14T11:27:50.589Z,20.21
2023-05-14T11:30:18.873Z,20.30
2023-05-14T11:32:46.903Z,20.21
2023-05-14T11:35:14.634Z,19.64
2023-05-14T11:37:42.322Z,19.25
2023-05-14T11:40:16.231Z,18.78
2023-05-14T11:42:43.874Z,18.87
2023-05-14T11:45:12.212Z,18.65
2023-05-14T11:47:39.890Z,18.37
2023-05-14T11:50:09.414Z,18.63
2023-05-14T11:52:38.721Z,18.02
2023-05-14T11:55:06.900Z,18.57
2023-05-14T11:57:36.433Z,19.18
2023-05-14T12:00:05.941Z,19.30
2023-05-14T12:02:33.565Z,19.33
2023-05-14T12:05:01.353Z,19.46
2023-05-14T12:07:30.241Z,19.91
2023-05-14T12:10:01.323Z,19.89
2023-05-14T12:12:28.973Z,20.36
2023-05-14T12:15:00.435Z,20.11
2023-05-14T12:17:28.084Z,19.81
2023-05-14T12:19:56.981Z,20.28
2023-05-14T12:22:24.718Z,19.89
2023-05-14T12:24:55.635Z,19.51
2023-05-14T12:27:23.519Z,18.86
2023-05-14T12:29:53.392Z,17.82
2023-05-14T12:32:22.440Z,17.81
2023-05-14T12:34:50.094Z,17.00
2023-05-14T12:37:18.399Z,16.93
2023-05-14T12:39:45.991Z,16.79
2023-05-14T12:42:15.623Z,15.99
2023-05-14T12:44:43.321Z,15.55
2023-05-14T12:47:11.054Z,15.35
2023-05-14T12:49:40.078Z,15.28
2023-05-14T12:52:25.741Z,16.17
2023-05-14T12:54:55.518Z,15.89
2023-05-14T12:57:23.113Z,15.65
2023-05-14T12:59:50.742Z,16.14
2023-05-14T13:02:18.797Z,16.83
2023-05-14T13:04:47.750Z,17.11
2023-05-14T13:07:16.459Z,17.16
2023-05-14T13:09:44.056Z,17.75
2023-05-14T13:12:11.622Z,18.60
2023-05-14T13:14:39.230Z,19.01
2023-05-14T13:17:08.015Z,18.59
2023-05-14T13:19:35.796Z,19.02
2023-05-14T13:22:04.988Z,18.31
2023-05-14T13:24:32.561Z,17.65
2023-05-14T13:27:00.690Z,16.63
2023-05-14T13:29:29.308Z,15.81
2023-05-14T13:31:56.956Z,16.22
2023-05-14T13:34:24.551Z,16.31
2023-05-14T13:36:52.149Z,17.42
2023-05-14T13:39:22.702Z,17.20
2023-05-14T13:41:50.773Z,18.67
2023-05-14T13:44:18.373Z,18.56
2023-05-14T13:46:46.022Z,18.95
2023-05-14T13:49:13.763Z,19.01
2023-05-14T13:51:41.333Z,18.98
2023-05-14T13:54:08.934Z,19.32
2023-05-14T13:56:37.961Z,19.75
2023-05-14T13:59:05.892Z,19.69
2023-05-14T14:01:33.606Z,20.02
2023-05-14T14:04:01.338Z,19.98
2023-05-14T14:06:29.034Z,20.03
2023-05-14T14:08:56.614Z,19.87
2023-05-14T14:11:24.264Z,19.53
2023-05-14T14:13:53.210Z,19.17
2023-05-14T14:16:20.907Z,19.52
2023-05-14T14:18:48.669Z,19.39
2023-05-14T14:21:18.061Z,19.34
2023-05-14T14:23:46.698Z,19.70
2023-05-14T14:26:14.317Z,19.12
2023-05-14T14:28:41.852Z,18.84
2023-05-14T14:31:11.780Z,18.44
2023-05-14T14:33:39.392Z,18.33
2023-05-14T14:36:07.529Z,18.32
2023-05-14T14:38:35.225Z,18.52
2023-05-14T14:41:03.112Z,18.57
2023-05-14T14:43:30.780Z,18.18
2023-05-14T14:45:58.497Z,17.61
2023-05-14T14:48:28.263Z,17.49
2023-05-14T14:50:56.088Z,17.17
2023-05-14T14:53:23.898Z,16.82
2023-05-14T14:55:51.662Z,16.78
2023-05-14T14:58:19.437Z,16.52
2023-05-14T15:00:47.151Z,16.57
2023-05-14T15:03:15.388Z,16.38
2023-05-14T15:05:44.485Z,16.10
2023-05-14T15:08:12.659Z,16.58
2023-05-14T15:10:41.199Z,16.29
2023-05-14T15:13:08.931Z,15.95
2023-05-14T15:15:37.384Z,14.04
2023-05-14T15:18:05.291Z,12.87
2023-05-14T15:20:33.136Z,11.87
2023-05-14T15:23:02.387Z,11.32
2023-05-14T15:25:30.064Z,11.18
2023-05-14T15:27:57.901Z,10.62
2023-05-14T15:30:25.570Z,11.17
2023-05-14T15:32:53.558Z,11.16
2023-05-14T15:35:21.429Z,11.84
2023-05-14T15:37:49.129Z,12.13
2023-05-14T15:40:19.806Z,12.43
2023-05-14T15:42:48.032Z,13.03
2023-05-14T15:45:15.948Z,13.27
2023-05-14T15:47:45.082Z,13.92
2023-05-14T15:50:12.710Z,14.99
2023-05-14T15:52:41.456Z,15.12
2023-05-14T15:55:09.593Z,15.85
2023-05-14T15:57:39.023Z,15.82
2023-05-14T16:00:10.504Z,15.85
2023-05-14T16:02:38.725Z,16.32
2023-05-14T16:05:06.892Z,16.24
2023-05-14T16:07:34.544Z,16.65
2023-05-14T16:10:02.145Z,16.51
2023-05-14T16:12:29.855Z,16.31
2023-05-14T16:14:59.841Z,16.87
2023-05-14T16:17:27.482Z,17.82
2023-05-14T16:19:56.422Z,17.09
2023-05-14T16:22:24.320Z,17.71
2023-05-14T16:24:51.907Z,17.52
2023-05-14T16:27:19.542Z,16.96
2023-05-14T16:29:47.225Z,17.14
2023-05-14T16:32:16.377Z,17.56
2023-05-14T16:34:49.464Z,18.17
2023-05-14T16:37:17.141Z,17.18
2023-05-14T16:39:44.780Z,16.47
2023-05-14T16:42:12.748Z,17.49
2023-05-14T16:44:40.416Z,15.56
2023-05-14T16:47:08.001Z,16.07
2023-05-14T16:49:36.965Z,14.37
2023-05-14T16:52:04.806Z,13.50
2023-05-14T16:54:32.373Z,13.97
2023-05-14T16:57:00.005Z,13.55
2023-05-14T16:59:27.603Z,13.10
2023-05-14T17:01:56.107Z,12.61
2023-05-14T17:04:26.349Z,12.27
2023-05-14T17:06:55.357Z,11.96
2023-05-14T17:09:23.158Z,12.00
2023-05-14T17:11:50.828Z,11.89
2023-05-14T17:14:18.473Z,12.08
2023-05-14T17:16:46.111Z,11.62
2023-05-14T17:19:13.764Z,11.90
2023-05-14T17:21:41.365Z,12.55
2023-05-14T17:24:10.385Z,12.57
2023-05-14T17:26:38.699Z,13.67
2023-05-14T17:29:06.318Z,14.34
2023-05-14T17:31:33.979Z,14.94
2023-05-14T17:34:01.706Z,15.13
2023-05-14T17:36:29.383Z,14.40
2023-05-14T17:38:57.048Z,14.88
2023-05-14T17:41:26.564Z,14.74
2023-05-14T17:43:54.134Z,14.63
2023-05-14T17:46:21.800Z,14.48
2023-05-14T17:48:49.572Z,15.39
2023-05-14T17:51:17.179Z,15.63
2023-05-14T17:53:44.785Z,15.27
2023-05-14T17:56:12.385Z,16.29
2023-05-14T17:58:41.364Z,17.08
2023-05-14T18:01:09.086Z,17.54
2023-05-14T18:03:36.930Z,18.68
2023-05-14T18:06:04.716Z,18.89
2023-05-14T18:08:32.348Z,18.73
2023-05-14T18:11:00.754Z,19.58
2023-05-14T18:13:28.385Z,20.08
2023-05-14T18:15:57.448Z,20.06
2023-05-14T18:18:25.053Z,20.48
2023-05-14T18:20:52.716Z,20.68
2023-05-14T18:23:20.436Z,21.11
2023-05-14T18:25:48.565Z,20.70
2023-05-14T18:28:16.184Z,21.12
2023-05-14T18:30:45.257Z,21.81
2023-05-14T18:33:14.414Z,21.38
2023-05-14T18:35:43.425Z,21.38
2023-05-14T18:38:11.923Z,21.92
2023-05-14T18:40:39.558Z,21.75
2023-05-14T18:43:07.204Z,21.99
2023-05-14T18:45:34.757Z,22.43
2023-05-14T18:48:02.382Z,22.86
2023-05-14T18:50:31.362Z,22.97
2023-05-14T18:52:58.991Z,23.04
2023-05-14T18:55:27.004Z,23.08
2023-05-14T18:57:54.804Z,23.46
2023-05-14T19:00:22.406Z,23.51
2023-05-14T19:02:50.153Z,23.71
2023-05-14T19:05:17.861Z,24.21
2023-05-14T19:07:48.051Z,24.32
2023-05-14T19:10:15.777Z,24.62
2023-05-14T19:12:43.413Z,25.11
2023-05-14T19:15:11.449Z,25.24
2023-05-14T19:17:39.131Z,25.47
2023-05-14T19:20:07.936Z,25.37
2023-05-14T19:22:35.554Z,25.65
2023-05-14T19:25:05.207Z,25.83
2023-05-14T19:27:34.475Z,25.95
2023-05-14T19:30:02.093Z,26.05
2023-05-14T19:32:29.713Z,26.15
2023-05-14T19:34:57.454Z,26.61
2023-05-14T19:37:26.170Z,26.95
2023-05-14T19:39:53.784Z,27.31
2023-05-14T19:42:24.701Z,27.22
2023-05-14T19:44:52.369Z,27.44
2023-05-14T19:47:19.994Z,27.61
2023-05-14T19:49:47.677Z,27.76
2023-05-14T19:52:15.265Z,28.27
2023-05-14T19:54:42.869Z,28.33
2023-05-14T19:57:11.112Z,28.71
2023-05-14T19:59:41.338Z,28.87
2023-05-14T20:02:09.090Z,29.22
2023-05-14T20:04:39.958Z,29.42
2023-05-14T20:07:08.263Z,29.57
2023-05-14T20:09:35.897Z,29.79
2023-05-14T20:12:03.496Z,29.83
2023-05-14T20:14:31.272Z,30.13
2023-05-14T20:17:00.330Z,30.40
2023-05-14T20:19:28.258Z,30.39
2023-05-14T20:21:56.475Z,30.63
2023-05-14T20:24:24.069Z,30.67
2023-05-14T20:26:51.664Z,31.27
2023-05-14T20:29:19.335Z,31.17
2023-05-14T20:31:46.970Z,31.47
2023-05-14T20:34:15.900Z,32.18
2023-05-14T20:36:43.934Z,32.34
2023-05-14T20:39:12.188Z,32.32
2023-05-14T20:41:40.122Z,32.29
2023-05-14T20:44:08.176Z,32.31
2023-05-14T20:46:36.186Z,32.26
2023-05-14T20:49:04.338Z,32.11
2023-05-14T20:51:33.481Z,32.14
2023-05-14T20:54:01.109Z,32.42
2023-05-14T20:56:28.702Z,32.23
2023-05-14T20:58:56.451Z,32.66
2023-05-14T21:01:24.115Z,32.52
2023-05-14T21:03:51.817Z,32.72
2023-05-14T21:06:19.479Z,32.80
2023-05-14T21:08:48.427Z,32.58
2023-05-14T21:11:16.876Z,32.58
2023-05-14T21:13:44.852Z,32.60
2023-05-14T21:16:12.899Z,32.76
2023-05-14T21:18:40.661Z,32.68
2023-05-14T21:21:08.360Z,32.93
2023-05-14T21:23:36.131Z,32.75
2023-05-14T21:26:05.562Z,32.78
2023-05-14T21:28:33.282Z,32.96
2023-05-14T21:31:00.871Z,33.09
2023-05-14T21:33:28.965Z,33.32
2023-05-14T21:35:56.923Z,33.59
2023-05-14T21:38:24.594Z,33.63
2023-05-14T21:40:52.226Z,33.90
2023-05-14T21:43:21.226Z,33.85
2023-05-14T21:45:48.804Z,34.49
2023-05-14T21:48:16.431Z,34.50
2023-05-14T21:50:44.101Z,34.57
2023-05-14T21:53:11.689Z,34.75
2023-05-14T21:55:39.309Z,34.88
2023-05-14T21:58:07.208Z,35.15
2023-05-14T22:00:36.202Z,35.22
2023-05-14T22:03:03.965Z,35.59
2023-05-14T22:05:31.652Z,37.43
2023-05-14T22:07:59.252Z,36.84
2023-05-14T22:10:26.853Z,36.52
2023-05-14T22:12:54.424Z,36.61
2023-05-14T22:15:22.017Z,36.60
2023-05-14T22:17:51.025Z,36.60
2023-05-14T22:20:18.762Z,36.54
2023-05-14T22:22:46.454Z,37.05
2023-05-14T22:25:14.072Z,36.89
2023-05-14T22:27:41.652Z,37.36
2023-05-14T22:30:10.007Z,37.87
2023-05-14T22:32:37.923Z,37.56
2023-05-14T22:35:07.232Z,37.66
2023-05-14T22:37:34.901Z,37.87
2023-05-14T22:40:05.036Z,37.71
2023-05-14T22:42:32.613Z,37.52
2023-05-14T22:45:00.221Z,36.97
2023-05-14T22:47:27.808Z,36.93
2023-05-14T22:49:55.391Z,37.04
2023-05-14T22:52:24.349Z,37.20
2023-05-14T22:54:52.130Z,37.28
2023-05-14T22:57:19.719Z,37.72
2023-05-14T22:59:47.260Z,37.70
2023-05-14T23:02:14.888Z,37.86
2023-05-14T23:04:42.668Z,38.03
2023-05-14T23:07:10.239Z,38.27
2023-05-14T23:09:39.171Z,38.16
2023-05-14T23:12:07.051Z,38.23
2023-05-14T23:14:34.657Z,37.98
2023-05-14T23:17:02.585Z,38.12
2023-05-14T23:19:30.208Z,38.07
2023-05-14T23:21:58.240Z,38.06
2023-05-14T23:24:26.137Z,38.22
2023-05-14T23:26:55.648Z,37.87
2023-05-14T23:29:23.245Z,37.70
2023-05-14T23:31:50.878Z,37.83
2023-05-14T23:34:18.861Z,37.72
2023-05-14T23:36:46.448Z,37.23
2023-05-14T23:39:14.149Z,37.42
2023-05-14T23:41:41.752Z,37.94
2023-05-14T23:44:10.686Z,38.07
2023-05-14T23:46:38.274Z,38.26
2023-05-14T23:49:05.860Z,38.34
2023-05-14T23:51:33.448Z,38.38
2023-05-14T23:54:01.043Z,38.38
2023-05-14T23:56:29.011Z,38.22
2023-05-14T23:58:56.711Z,38.70
